Time;durP1;ratioP1;P1;durP2;ratioP2;P2;SDS_P1;SDS_P2;PMS_P1;PMS_P2;Temp;Humidity;BMP_temperature;BMP_pressure;BME280_temperature;BME280_humidity;BME280_pressure;Samples;Min_cycle;Max_cycle;Signal;HPM_P1;HPM_P2
2021/08/15 00:03:39;;;;;;;10.68;8.93;;;;;;;;;;10286128;28;20037;-89
2021/08/15 00:08:40;;;;;;;13.23;10.13;;;;;;;;;;10285871;28;20487;-90
2021/08/15 00:13:41;;;;;;;12.73;9.93;;;;;;;;;;10285368;28;20455;-89
2021/08/15 00:18:42;;;;;;;11.52;9.98;;;;;;;;;;10296936;28;20031;-87
2021/08/15 00:23:43;;;;;;;13.35;10.38;;;;;;;;;;10332248;28;20057;-89
2021/08/15 00:28:44;;;;;;;12.75;10.15;;;;;;;;;;10288189;28;20114;-88
2021/08/15 00:33:45;;;;;;;13.20;10.90;;;;;;;;;;10303768;28;20046;-89
2021/08/15 00:38:46;;;;;;;13.77;11.30;;;;;;;;;;10286934;28;20071;-89
2021/08/15 00:43:47;;;;;;;15.57;11.50;;;;;;;;;;10302555;28;20054;-88
2021/08/15 00:48:49;;;;;;;13.65;11.27;;;;;;;;;;10305352;28;20039;-86
2021/08/15 00:53:50;;;;;;;12.63;10.30;;;;;;;;;;10284055;28;20039;-85
2021/08/15 00:58:51;;;;;;;12.75;10.50;;;;;;;;;;10283683;28;20039;-88
2021/08/15 01:03:52;;;;;;;12.30;10.20;;;;;;;;;;10283144;28;20030;-88
2021/08/15 01:08:53;;;;;;;11.10;9.45;;;;;;;;;;10283784;28;20077;-88
2021/08/15 01:13:54;;;;;;;14.00;12.05;;;;;;;;;;10282648;28;20043;-88
2021/08/15 01:18:55;;;;;;;11.95;10.40;;;;;;;;;;10283271;28;20023;-88
2021/08/15 01:23:56;;;;;;;11.10;9.40;;;;;;;;;;10283055;28;20034;-88
2021/08/15 01:28:57;;;;;;;9.57;8.13;;;;;;;;;;10282338;28;20086;-89
2021/08/15 01:33:58;;;;;;;14.48;11.93;;;;;;;;;;10282391;28;20488;-87
2021/08/15 01:38:59;;;;;;;13.30;10.40;;;;;;;;;;10284576;28;20042;-86
2021/08/15 01:44:01;;;;;;;13.65;10.65;;;;;;;;;;10283634;28;20035;-88
2021/08/15 01:49:02;;;;;;;13.15;10.70;;;;;;;;;;10282865;28;20066;-88
2021/08/15 01:54:04;;;;;;;14.63;10.85;;;;;;;;;;10282487;28;20052;-86
2021/08/15 01:59:05;;;;;;;13.80;11.15;;;;;;;;;;10282172;28;20467;-89
2021/08/15 02:04:09;;;;;;;12.25;10.88;;;;;;;;;;10282282;28;20061;-88
2021/08/15 02:09:10;;;;;;;14.07;12.00;;;;;;;;;;10283466;28;20034;-87
2021/08/15 02:14:11;;;;;;;12.45;11.15;;;;;;;;;;10284118;28;20035;-88
2021/08/15 02:19:12;;;;;;;14.98;10.93;;;;;;;;;;10283232;28;20121;-85
2021/08/15 02:24:13;;;;;;;13.88;10.57;;;;;;;;;;10283829;28;20049;-85
2021/08/15 02:29:14;;;;;;;13.80;11.27;;;;;;;;;;10284176;28;20030;-86
2021/08/15 02:34:15;;;;;;;10.98;9.75;;;;;;;;;;10284394;28;20043;-86
2021/08/15 02:39:16;;;;;;;13.00;10.85;;;;;;;;;;10283960;28;20487;-86
2021/08/15 02:44:17;;;;;;;14.55;11.20;;;;;;;;;;10283894;28;20102;-85
2021/08/15 02:49:18;;;;;;;12.90;10.75;;;;;;;;;;10284388;28;20046;-87
2021/08/15 02:54:19;;;;;;;10.68;9.57;;;;;;;;;;10284535;28;20035;-86
2021/08/15 02:59:20;;;;;;;10.52;9.27;;;;;;;;;;10286921;28;20125;-85
2021/08/15 03:04:21;;;;;;;12.30;9.77;;;;;;;;;;10287284;28;20491;-87
2021/08/15 03:09:21;;;;;;;12.27;10.20;;;;;;;;;;10290767;28;20041;-88
2021/08/15 03:14:22;;;;;;;12.35;10.35;;;;;;;;;;10303608;28;20059;-85
2021/08/15 03:19:23;;;;;;;11.85;10.23;;;;;;;;;;10285234;28;20043;-87
2021/08/15 03:24:25;;;;;;;12.90;10.80;;;;;;;;;;10285467;28;20061;-85
2021/08/15 03:29:25;;;;;;;12.57;10.50;;;;;;;;;;10286796;28;20093;-85
2021/08/15 03:34:26;;;;;;;11.77;10.35;;;;;;;;;;10288333;28;20130;-85
2021/08/15 03:39:31;;;;;;;11.00;9.90;;;;;;;;;;10289218;28;20045;-85
2021/08/15 03:44:32;;;;;;;12.75;10.45;;;;;;;;;;10286510;28;20042;-87
2021/08/15 03:49:33;;;;;;;11.32;10.13;;;;;;;;;;10288267;28;20039;-85
2021/08/15 03:54:34;;;;;;;11.45;10.25;;;;;;;;;;10288781;28;20049;-85
2021/08/15 03:59:35;;;;;;;12.98;11.32;;;;;;;;;;10284517;28;20510;-88
2021/08/15 04:04:36;;;;;;;12.75;10.35;;;;;;;;;;10280671;28;20046;-87
2021/08/15 04:09:37;;;;;;;12.80;10.98;;;;;;;;;;10300436;28;20035;-87
2021/08/15 04:14:38;;;;;;;13.90;11.70;;;;;;;;;;10283395;28;20524;-87
2021/08/15 04:19:39;;;;;;;13.38;11.15;;;;;;;;;;10281368;28;20487;-88
2021/08/15 04:24:40;;;;;;;12.25;10.57;;;;;;;;;;10280352;28;20133;-87
2021/08/15 04:29:41;;;;;;;12.13;10.80;;;;;;;;;;10280512;28;20042;-87
2021/08/15 04:34:41;;;;;;;12.45;10.15;;;;;;;;;;10280900;28;20134;-87
2021/08/15 04:39:42;;;;;;;13.48;10.15;;;;;;;;;;10282151;28;20133;-87
2021/08/15 04:44:43;;;;;;;13.25;10.85;;;;;;;;;;10279850;28;20089;-88
2021/08/15 04:49:44;;;;;;;11.63;9.80;;;;;;;;;;10278896;28;20110;-88
2021/08/15 04:54:45;;;;;;;13.68;11.20;;;;;;;;;;10287874;28;20078;-88
2021/08/15 04:59:46;;;;;;;13.40;11.05;;;;;;;;;;10279832;28;20043;-88
2021/08/15 05:04:47;;;;;;;16.20;12.95;;;;;;;;;;10278485;28;20189;-88
2021/08/15 05:09:48;;;;;;;14.48;11.80;;;;;;;;;;10278284;28;20063;-87
2021/08/15 05:14:49;;;;;;;13.38;11.25;;;;;;;;;;10280840;28;20039;-85
2021/08/15 05:19:50;;;;;;;14.80;12.40;;;;;;;;;;10279072;28;20035;-85
2021/08/15 05:24:51;;;;;;;12.52;11.20;;;;;;;;;;10279388;28;20125;-87
2021/08/15 05:29:52;;;;;;;14.23;10.85;;;;;;;;;;10278791;28;20058;-87
2021/08/15 05:34:52;;;;;;;12.73;10.90;;;;;;;;;;10296222;28;20047;-87
2021/08/15 05:39:53;;;;;;;13.32;11.23;;;;;;;;;;10279012;28;20137;-87
2021/08/15 05:44:54;;;;;;;13.23;11.38;;;;;;;;;;10278306;28;20043;-87
2021/08/15 05:49:55;;;;;;;14.65;11.73;;;;;;;;;;10276579;28;20030;-88
2021/08/15 05:54:56;;;;;;;17.95;13.68;;;;;;;;;;10276523;28;20031;-88
2021/08/15 05:59:57;;;;;;;16.63;13.90;;;;;;;;;;10276880;28;20039;-88
2021/08/15 06:04:58;;;;;;;13.82;11.43;;;;;;;;;;10276505;28;20035;-88
2021/08/15 06:10:00;;;;;;;15.52;12.60;;;;;;;;;;10267977;28;20500;-86
2021/08/15 06:15:01;;;;;;;14.02;11.57;;;;;;;;;;10284842;28;20043;-86
2021/08/15 06:20:03;;;;;;;18.90;13.95;;;;;;;;;;10294699;28;20035;-88
2021/08/15 06:25:04;;;;;;;14.68;12.02;;;;;;;;;;10276168;28;20446;-88
2021/08/15 06:30:05;;;;;;;12.73;10.00;;;;;;;;;;10295053;28;20398;-86
2021/08/15 06:35:06;;;;;;;12.02;9.98;;;;;;;;;;10279584;28;20439;-86
2021/08/15 06:40:08;;;;;;;13.35;11.45;;;;;;;;;;10279047;28;20046;-87
2021/08/15 06:45:09;;;;;;;11.63;10.15;;;;;;;;;;10282303;28;20045;-86
2021/08/15 06:50:10;;;;;;;14.38;11.68;;;;;;;;;;10288577;28;20038;-86
2021/08/15 06:55:11;;;;;;;17.70;12.80;;;;;;;;;;10287153;28;20027;-86
2021/08/15 07:00:13;;;;;;;13.43;11.45;;;;;;;;;;10288556;28;20027;-86
2021/08/15 07:05:14;;;;;;;17.15;12.25;;;;;;;;;;10307216;28;20031;-86
2021/08/15 07:10:15;;;;;;;10.57;9.13;;;;;;;;;;10323855;28;20069;-86
2021/08/15 07:15:16;;;;;;;16.80;11.43;;;;;;;;;;10306200;28;20035;-88
2021/08/15 07:20:17;;;;;;;11.13;9.18;;;;;;;;;;10283139;28;20035;-88
2021/08/15 07:25:19;;;;;;;11.55;9.35;;;;;;;;;;10283177;28;20065;-89
2021/08/15 07:30:20;;;;;;;11.82;9.70;;;;;;;;;;10282803;28;20039;-89
2021/08/15 07:35:21;;;;;;;12.50;9.75;;;;;;;;;;10284389;28;20122;-88
2021/08/15 13:36:49;;;;;;;4.38;2.97;;;;;;;;;;10321679;28;20030;-85
2021/08/15 13:41:51;;;;;;;5.32;3.10;;;;;;;;;;10338402;23;20466;-86
2021/08/15 13:46:52;;;;;;;9.73;3.42;;;;;;;;;;10293396;28;20058;-84
2021/08/15 13:51:53;;;;;;;6.00;3.22;;;;;;;;;;10290618;28;20046;-85
2021/08/15 13:56:54;;;;;;;4.28;2.95;;;;;;;;;;10280436;28;20035;-86
2021/08/15 14:01:55;;;;;;;6.53;3.67;;;;;;;;;;10280975;28;20046;-85
2021/08/15 14:06:56;;;;;;;7.03;3.20;;;;;;;;;;10283263;28;20035;-86
2021/08/15 14:11:57;;;;;;;6.43;3.28;;;;;;;;;;10281004;28;20041;-86
2021/08/15 14:16:58;;;;;;;5.28;3.60;;;;;;;;;;10276172;28;20406;-87
2021/08/15 14:21:59;;;;;;;5.15;3.47;;;;;;;;;;10277367;28;20038;-87
2021/08/15 14:27:00;;;;;;;5.90;3.63;;;;;;;;;;10293502;28;20066;-87
2021/08/15 14:32:01;;;;;;;5.60;3.25;;;;;;;;;;10275885;28;20069;-87
2021/08/15 14:37:02;;;;;;;5.50;3.13;;;;;;;;;;10278995;28;20039;-85
2021/08/15 14:42:03;;;;;;;6.18;3.38;;;;;;;;;;10283877;28;20067;-87
2021/08/15 14:47:04;;;;;;;6.18;3.33;;;;;;;;;;10278106;28;20126;-87
2021/08/15 14:52:06;;;;;;;6.93;3.25;;;;;;;;;;10277676;28;20031;-87
2021/08/15 14:57:07;;;;;;;5.57;3.50;;;;;;;;;;10282210;28;20030;-87
2021/08/15 15:02:09;;;;;;;4.70;3.13;;;;;;;;;;10305165;28;20034;-87
2021/08/15 15:07:10;;;;;;;5.03;3.20;;;;;;;;;;10291928;28;20085;-86
2021/08/15 15:12:11;;;;;;;4.35;3.05;;;;;;;;;;10291030;28;20046;-84
2021/08/15 15:17:12;;;;;;;8.63;3.63;;;;;;;;;;10290577;28;20049;-84
2021/08/15 15:22:13;;;;;;;5.38;3.42;;;;;;;;;;10292355;28;20096;-84
2021/08/15 15:27:13;;;;;;;6.47;3.40;;;;;;;;;;10300193;28;20026;-85
2021/08/15 15:32:14;;;;;;;6.43;3.45;;;;;;;;;;10306631;28;20039;-85
2021/08/15 15:37:16;;;;;;;9.77;6.20;;;;;;;;;;10314821;28;20423;-84
2021/08/15 15:42:16;;;;;;;7.32;4.53;;;;;;;;;;10312643;28;20117;-86
2021/08/15 15:47:21;;;;;;;5.00;3.20;;;;;;;;;;10305211;28;20031;-86
2021/08/15 15:52:22;;;;;;;5.45;3.00;;;;;;;;;;10288061;28;20046;-86
2021/08/15 15:57:23;;;;;;;5.35;3.28;;;;;;;;;;10291647;28;20069;-86
2021/08/15 16:02:24;;;;;;;5.75;3.20;;;;;;;;;;10289558;28;20050;-86
2021/08/15 16:07:25;;;;;;;5.82;3.25;;;;;;;;;;10291011;28;20037;-85
2021/08/15 16:12:26;;;;;;;5.28;3.30;;;;;;;;;;10287172;28;20039;-84
2021/08/15 16:17:27;;;;;;;6.65;3.50;;;;;;;;;;10300891;28;20043;-86
2021/08/15 16:22:29;;;;;;;5.38;3.50;;;;;;;;;;10283083;28;20126;-86
2021/08/15 16:27:30;;;;;;;6.05;3.40;;;;;;;;;;10285114;28;20035;-85
2021/08/15 16:32:31;;;;;;;7.80;3.60;;;;;;;;;;10292707;28;20074;-85
2021/08/15 16:37:34;;;;;;;6.65;3.22;;;;;;;;;;10315312;28;20046;-86
2021/08/15 16:42:35;;;;;;;6.10;3.67;;;;;;;;;;10285443;28;20503;-86
2021/08/15 16:47:36;;;;;;;4.65;3.17;;;;;;;;;;10284345;28;20035;-86
2021/08/15 16:52:37;;;;;;;7.07;3.60;;;;;;;;;;10282977;28;20478;-87
2021/08/15 16:57:38;;;;;;;7.00;3.13;;;;;;;;;;10282293;28;20125;-87
2021/08/15 17:02:39;;;;;;;6.25;3.60;;;;;;;;;;10289831;28;20511;-85
2021/08/15 17:07:40;;;;;;;4.60;3.20;;;;;;;;;;10283469;28;20215;-86
2021/08/15 17:12:41;;;;;;;6.07;3.58;;;;;;;;;;10285321;28;20429;-85
2021/08/15 17:17:42;;;;;;;5.30;3.38;;;;;;;;;;10287524;28;20078;-84
2021/08/15 17:22:43;;;;;;;5.38;3.22;;;;;;;;;;10286168;28;20101;-85
2021/08/15 17:27:45;;;;;;;7.38;3.72;;;;;;;;;;10304018;28;20170;-85
2021/08/15 17:32:47;;;;;;;5.78;3.55;;;;;;;;;;10284778;28;20038;-84
2021/08/15 17:37:49;;;;;;;6.82;3.60;;;;;;;;;;10297891;28;20060;-86
2021/08/15 17:42:50;;;;;;;9.80;3.45;;;;;;;;;;10288182;28;20051;-84
2021/08/15 17:47:51;;;;;;;4.72;3.30;;;;;;;;;;10309597;28;20454;-84
2021/08/15 17:52:52;;;;;;;5.03;3.17;;;;;;;;;;10286016;28;20061;-86
2021/08/15 17:57:54;;;;;;;4.32;3.22;;;;;;;;;;10283494;28;20045;-87
2021/08/15 18:02:55;;;;;;;5.72;3.03;;;;;;;;;;10279590;28;20554;-86
2021/08/15 18:07:56;;;;;;;4.90;3.33;;;;;;;;;;10279041;28;20066;-87
2021/08/15 18:12:56;;;;;;;4.70;3.25;;;;;;;;;;10280561;28;20049;-86
2021/08/15 18:17:57;;;;;;;4.25;2.95;;;;;;;;;;10278736;28;20093;-86
2021/08/15 18:22:58;;;;;;;5.00;2.83;;;;;;;;;;10279022;28;20073;-86
2021/08/15 18:28:01;;;;;;;4.05;2.70;;;;;;;;;;10280776;28;20035;-86
2021/08/15 18:33:02;;;;;;;4.70;3.05;;;;;;;;;;10285085;28;20027;-85
2021/08/15 18:38:04;;;;;;;5.32;2.80;;;;;;;;;;10303301;28;20050;-84
2021/08/15 18:43:05;;;;;;;9.10;4.15;;;;;;;;;;10289700;28;20097;-84
2021/08/15 18:48:06;;;;;;;7.68;4.47;;;;;;;;;;10290479;28;20041;-84
2021/08/15 18:53:07;;;;;;;3.83;2.80;;;;;;;;;;10306637;28;20491;-86
2021/08/15 18:58:09;;;;;;;7.78;5.32;;;;;;;;;;10287260;28;20093;-86
2021/08/15 19:03:10;;;;;;;10.60;7.32;;;;;;;;;;10288394;28;20039;-84
2021/08/15 19:08:11;;;;;;;14.48;9.43;;;;;;;;;;10308715;28;20039;-87
2021/08/15 19:13:12;;;;;;;11.73;9.25;;;;;;;;;;10322284;28;20030;-84
2021/08/15 19:18:13;;;;;;;18.92;13.00;;;;;;;;;;10330770;28;20063;-84
2021/08/15 19:23:15;;;;;;;23.67;16.42;;;;;;;;;;10330783;28;20050;-84
2021/08/15 19:28:16;;;;;;;15.05;10.57;;;;;;;;;;10308279;28;20423;-86
2021/08/15 19:33:17;;;;;;;13.35;9.57;;;;;;;;;;10297872;28;20134;-86
2021/08/15 19:38:18;;;;;;;13.15;8.52;;;;;;;;;;10308172;28;20031;-86
2021/08/15 19:43:19;;;;;;;11.27;7.10;;;;;;;;;;10291226;28;20046;-85
2021/08/15 19:48:23;;;;;;;7.63;5.68;;;;;;;;;;10296756;28;20037;-85
2021/08/15 19:53:24;;;;;;;7.35;5.13;;;;;;;;;;10294315;28;20031;-84
2021/08/15 19:58:25;;;;;;;6.43;4.68;;;;;;;;;;10294679;28;20482;-84
2021/08/15 20:03:30;;;;;;;6.00;4.50;;;;;;;;;;10310849;28;20039;-84
2021/08/15 20:08:31;;;;;;;9.68;4.45;;;;;;;;;;10307077;28;20121;-86
2021/08/15 20:13:32;;;;;;;6.40;4.30;;;;;;;;;;10284331;28;20039;-84
